createdAt,value
2017-10-25T00:00:13.608Z,13.00
2017-10-25T00:02:41.441Z,11.80
2017-10-25T00:05:08.757Z,12.00
2017-10-25T00:07:36.068Z,10.97
2017-10-25T00:10:03.396Z,12.50
2017-10-25T00:12:30.705Z,11.77
2017-10-25T00:14:58.036Z,12.13
2017-10-25T00:17:25.345Z,12.60
2017-10-25T00:19:52.664Z,12.60
2017-10-25T00:22:19.985Z,11.60
2017-10-25T00:24:47.329Z,12.87
2017-10-25T00:27:14.621Z,12.93
2017-10-25T00:29:41.937Z,12.60
2017-10-25T00:32:09.248Z,13.90
2017-10-25T00:34:36.725Z,12.57
2017-10-25T00:37:04.053Z,12.23
2017-10-25T00:39:31.357Z,12.63
2017-10-25T00:41:58.693Z,11.93
2017-10-25T00:44:25.997Z,12.40
2017-10-25T00:46:53.437Z,11.90
2017-10-25T00:49:21.017Z,11.80
2017-10-25T00:51:48.377Z,12.20
2017-10-25T00:54:15.679Z,12.40
2017-10-25T00:56:42.992Z,13.63
2017-10-25T00:59:10.308Z,11.37
2017-10-25T01:01:37.632Z,12.17
2017-10-25T01:04:04.949Z,11.00
2017-10-25T01:06:32.257Z,13.10
2017-10-25T01:08:59.595Z,11.63
2017-10-25T01:11:26.897Z,13.17
2017-10-25T01:13:54.221Z,13.93
2017-10-25T01:16:21.536Z,14.70
2017-10-25T01:18:49.000Z,13.53
2017-10-25T01:21:16.291Z,13.57
2017-10-25T01:23:43.607Z,14.37
2017-10-25T01:26:10.917Z,14.90
2017-10-25T01:28:38.252Z,14.50
2017-10-25T01:31:05.557Z,15.53
2017-10-25T01:33:32.884Z,15.03
2017-10-25T01:36:00.193Z,14.60
2017-10-25T01:38:27.550Z,15.77
2017-10-25T01:40:54.877Z,14.40
2017-10-25T01:43:22.193Z,15.67
2017-10-25T01:45:49.530Z,15.07
2017-10-25T01:48:16.829Z,15.73
2017-10-25T01:50:44.184Z,15.80
2017-10-25T01:53:11.541Z,15.73
2017-10-25T01:55:38.870Z,15.00
2017-10-25T01:58:06.169Z,15.87
2017-10-25T02:00:33.501Z,14.83
2017-10-25T02:03:00.812Z,14.93
2017-10-25T02:05:28.132Z,15.27
2017-10-25T02:07:55.433Z,15.60
2017-10-25T02:10:22.760Z,16.07
2017-10-25T02:12:50.064Z,16.50
2017-10-25T02:15:17.389Z,15.33
2017-10-25T02:17:44.705Z,15.57
2017-10-25T02:20:12.008Z,17.00
2017-10-25T02:22:39.359Z,16.03
2017-10-25T02:25:06.654Z,16.33
2017-10-25T02:27:33.981Z,16.60
2017-10-25T02:30:01.288Z,15.70
2017-10-25T02:32:28.833Z,15.90
2017-10-25T02:34:56.145Z,16.00
2017-10-25T02:37:23.470Z,16.47
2017-10-25T02:39:50.780Z,15.60
2017-10-25T02:42:18.101Z,15.83
2017-10-25T02:44:45.404Z,15.53
2017-10-25T02:47:12.743Z,15.00
2017-10-25T02:49:40.041Z,15.60
2017-10-25T02:52:07.376Z,14.90
2017-10-25T02:54:34.689Z,14.90
2017-10-25T02:57:02.012Z,15.33
2017-10-25T02:59:29.333Z,15.90
2017-10-25T03:01:56.637Z,15.03
2017-10-25T03:04:23.970Z,16.10
2017-10-25T03:06:51.571Z,16.77
2017-10-25T03:09:18.889Z,16.07
2017-10-25T03:11:46.601Z,16.13
2017-10-25T03:14:13.909Z,15.87
2017-10-25T03:16:41.208Z,15.40
2017-10-25T03:19:08.545Z,14.50
2017-10-25T03:21:35.853Z,15.37
2017-10-25T03:24:03.732Z,16.90
2017-10-25T03:26:31.045Z,16.47
2017-10-25T03:28:58.363Z,16.00
2017-10-25T03:31:26.631Z,17.40
2017-10-25T03:33:53.965Z,17.13
2017-10-25T03:36:21.290Z,16.23
2017-10-25T03:38:48.605Z,17.17
2017-10-25T03:41:15.933Z,16.10
2017-10-25T03:43:43.277Z,17.90
2017-10-25T03:46:10.630Z,16.67
2017-10-25T03:48:37.955Z,16.63
2017-10-25T03:51:05.292Z,17.57
2017-10-25T03:53:32.616Z,18.00
2017-10-25T03:55:59.947Z,16.90
2017-10-25T03:58:27.264Z,16.13
2017-10-25T04:00:54.604Z,17.97
2017-10-25T04:03:21.895Z,17.80
2017-10-25T04:05:49.385Z,17.17
2017-10-25T04:08:16.704Z,17.80
2017-10-25T04:10:44.006Z,17.83
2017-10-25T04:13:11.328Z,15.70
2017-10-25T04:15:38.638Z,17.07
2017-10-25T04:18:05.956Z,17.73
2017-10-25T04:20:33.273Z,15.33
2017-10-25T04:23:00.606Z,17.27
2017-10-25T04:25:27.913Z,16.70
2017-10-25T04:27:55.249Z,17.83
2017-10-25T04:30:22.856Z,17.27
2017-10-25T04:32:50.183Z,17.33
2017-10-25T04:35:17.489Z,17.00
2017-10-25T04:37:44.809Z,18.40
2017-10-25T04:40:12.122Z,16.17
2017-10-25T04:42:39.591Z,15.93
2017-10-25T04:45:06.908Z,17.37
2017-10-25T04:47:34.233Z,17.23
2017-10-25T04:50:01.552Z,17.30
2017-10-25T04:52:28.863Z,16.70
2017-10-25T04:54:56.364Z,17.67
2017-10-25T04:57:23.664Z,17.70
2017-10-25T04:59:50.989Z,17.10
2017-10-25T05:02:18.295Z,16.27
2017-10-25T05:04:45.632Z,14.70
2017-10-25T05:07:12.934Z,17.00
2017-10-25T05:09:40.273Z,16.10
2017-10-25T05:12:07.588Z,16.00
2017-10-25T05:14:34.932Z,16.00
2017-10-25T05:17:02.262Z,15.43
2017-10-25T05:19:29.572Z,16.00
2017-10-25T05:21:56.905Z,16.07
2017-10-25T05:24:24.211Z,13.37
2017-10-25T05:26:51.560Z,15.30
2017-10-25T05:29:19.008Z,14.67
2017-10-25T05:31:46.384Z,15.90
2017-10-25T05:34:13.697Z,15.00
2017-10-25T05:36:41.069Z,15.80
2017-10-25T05:39:08.381Z,15.00
2017-10-25T05:41:35.750Z,14.93
2017-10-25T05:44:03.052Z,15.27
2017-10-25T05:46:30.405Z,16.90
2017-10-25T05:48:57.712Z,14.37
2017-10-25T05:51:25.067Z,15.03
2017-10-25T05:53:53.656Z,14.93
2017-10-25T05:56:21.084Z,14.70
2017-10-25T05:58:48.412Z,14.00
2017-10-25T06:01:15.725Z,15.50
2017-10-25T06:03:43.052Z,14.40
2017-10-25T06:06:10.364Z,14.37
2017-10-25T06:08:37.685Z,15.80
2017-10-25T06:11:04.991Z,14.23
2017-10-25T06:13:32.312Z,15.37
2017-10-25T06:15:59.644Z,15.23
2017-10-25T06:18:26.980Z,15.27
2017-10-25T06:20:54.472Z,14.00
2017-10-25T06:23:21.792Z,14.30
2017-10-25T06:25:49.117Z,15.40
2017-10-25T06:28:16.436Z,14.10
2017-10-25T06:30:43.749Z,13.87
2017-10-25T06:33:11.077Z,14.80
2017-10-25T06:35:38.732Z,15.27
2017-10-25T06:38:06.020Z,15.20
2017-10-25T06:40:33.346Z,14.50
2017-10-25T06:43:00.644Z,14.30
2017-10-25T06:45:27.983Z,13.67
2017-10-25T06:47:55.284Z,13.73
2017-10-25T06:50:22.616Z,12.80
2017-10-25T06:52:49.920Z,13.00
2017-10-25T06:55:17.256Z,12.40
2017-10-25T06:57:44.565Z,14.23
2017-10-25T07:00:11.912Z,13.70
2017-10-25T07:02:39.249Z,13.27
2017-10-25T07:05:06.596Z,13.87
2017-10-25T07:07:33.909Z,13.60
2017-10-25T07:10:01.204Z,13.73
2017-10-25T07:12:28.532Z,13.43
2017-10-25T07:14:57.768Z,14.00
2017-10-25T07:17:25.116Z,11.90
2017-10-25T07:19:52.438Z,11.90
2017-10-25T07:22:20.072Z,12.60
2017-10-25T07:24:47.377Z,13.00
2017-10-25T07:27:14.721Z,12.73
2017-10-25T07:29:42.049Z,12.77
2017-10-25T07:32:09.367Z,14.00
2017-10-25T07:34:36.691Z,12.30
2017-10-25T07:37:04.006Z,11.40
2017-10-25T07:39:31.320Z,12.00
2017-10-25T07:41:58.658Z,11.03
2017-10-25T07:44:25.956Z,10.40
2017-10-25T07:46:53.445Z,11.73
2017-10-25T07:49:20.771Z,11.37
2017-10-25T07:51:48.079Z,11.03
2017-10-25T07:54:15.389Z,10.60
2017-10-25T07:56:42.708Z,10.70
2017-10-25T07:59:10.029Z,9.83
2017-10-25T08:01:37.346Z,10.63
2017-10-25T08:04:04.670Z,11.10
2017-10-25T08:06:32.017Z,10.57
2017-10-25T08:08:59.366Z,11.13
2017-10-25T08:11:26.659Z,10.57
2017-10-25T08:13:54.001Z,10.93
2017-10-25T08:16:21.315Z,10.27
2017-10-25T08:18:48.628Z,10.40
2017-10-25T08:21:16.212Z,10.80
2017-10-25T08:23:43.531Z,9.60
2017-10-25T08:26:10.853Z,11.20
2017-10-25T08:28:38.155Z,10.90
2017-10-25T08:31:05.544Z,10.10
2017-10-25T08:33:32.841Z,8.97
2017-10-25T08:36:00.147Z,9.50
2017-10-25T08:38:27.504Z,10.37
2017-10-25T08:40:54.815Z,9.80
2017-10-25T08:43:22.124Z,9.37
2017-10-25T08:45:49.449Z,9.40
2017-10-25T08:48:16.953Z,8.97
2017-10-25T08:50:44.257Z,8.90
2017-10-25T08:53:11.589Z,8.43
2017-10-25T08:55:38.900Z,9.50
2017-10-25T08:58:06.217Z,9.37
2017-10-25T09:00:33.540Z,8.37
2017-10-25T09:03:01.185Z,8.60
2017-10-25T09:05:28.522Z,8.37
2017-10-25T09:07:55.816Z,8.90
2017-10-25T09:10:23.113Z,8.83
2017-10-25T09:12:50.452Z,8.33
2017-10-25T09:15:17.749Z,8.53
2017-10-25T09:17:45.112Z,8.53
2017-10-25T09:20:12.444Z,8.73
2017-10-25T09:22:39.932Z,8.60
2017-10-25T09:25:07.238Z,9.60
2017-10-25T09:27:34.569Z,8.03
2017-10-25T09:30:01.932Z,8.83
2017-10-25T09:32:29.241Z,7.93
2017-10-25T09:34:56.569Z,8.40
2017-10-25T09:37:23.881Z,8.40
2017-10-25T09:39:51.195Z,8.40
2017-10-25T09:42:18.560Z,7.77
2017-10-25T09:44:45.866Z,8.13
2017-10-25T09:47:13.173Z,7.30
2017-10-25T09:49:40.501Z,7.30
2017-10-25T09:52:07.828Z,7.20
2017-10-25T09:54:35.181Z,7.07
2017-10-25T09:57:02.483Z,7.00
2017-10-25T09:59:29.796Z,6.50
2017-10-25T10:01:57.112Z,6.90
2017-10-25T10:04:24.432Z,6.10
2017-10-25T10:06:51.760Z,6.93
2017-10-25T10:09:19.076Z,7.07
2017-10-25T10:11:46.381Z,6.40
2017-10-25T10:14:13.681Z,6.80
2017-10-25T10:16:40.982Z,6.73
2017-10-25T10:19:08.387Z,6.80
2017-10-25T10:21:35.676Z,5.63
2017-10-25T10:24:02.961Z,6.47
2017-10-25T10:26:30.312Z,6.33
2017-10-25T10:28:57.606Z,5.90
2017-10-25T10:31:24.944Z,6.03
2017-10-25T10:33:52.239Z,6.80
2017-10-25T10:36:19.593Z,6.80
2017-10-25T10:38:46.909Z,6.33
2017-10-25T10:41:14.225Z,6.07
2017-10-25T10:43:41.533Z,5.60
2017-10-25T10:46:08.861Z,5.87
2017-10-25T10:48:36.174Z,5.80
2017-10-25T10:51:03.516Z,5.43
2017-10-25T10:53:30.873Z,4.80
2017-10-25T10:55:58.179Z,4.80
2017-10-25T10:58:25.477Z,4.70
2017-10-25T11:00:52.789Z,4.33
2017-10-25T11:03:20.112Z,4.40
2017-10-25T11:05:47.422Z,3.70
2017-10-25T11:08:14.794Z,3.83
2017-10-25T11:10:42.120Z,4.10
2017-10-25T11:13:09.425Z,3.70
2017-10-25T11:15:36.724Z,4.13
2017-10-25T11:18:04.036Z,3.70
2017-10-25T11:20:31.339Z,4.17
2017-10-25T11:22:58.638Z,3.50
2017-10-25T11:25:25.932Z,3.50
2017-10-25T11:27:53.240Z,3.60
2017-10-25T11:30:20.565Z,3.80
2017-10-25T11:32:48.068Z,3.80
2017-10-25T11:35:15.355Z,4.07
2017-10-25T11:37:42.709Z,3.87
2017-10-25T11:40:10.248Z,3.50
2017-10-25T11:42:37.561Z,3.53
2017-10-25T11:45:04.884Z,3.67
2017-10-25T11:47:32.185Z,3.80
2017-10-25T11:50:00.493Z,3.63
2017-10-25T11:52:27.814Z,4.10
2017-10-25T11:54:55.121Z,3.60
2017-10-25T11:57:22.593Z,3.70
2017-10-25T11:59:49.896Z,4.33
2017-10-25T12:02:17.183Z,3.60
2017-10-25T12:04:44.508Z,3.60
2017-10-25T12:07:11.797Z,3.90
2017-10-25T12:09:39.113Z,3.50
2017-10-25T12:12:06.402Z,3.83
2017-10-25T12:14:33.740Z,3.80
2017-10-25T12:17:01.953Z,4.00
2017-10-25T12:19:29.272Z,4.30
2017-10-25T12:21:56.566Z,3.57
2017-10-25T12:24:23.929Z,4.13
2017-10-25T12:26:51.219Z,3.93
2017-10-25T12:29:18.537Z,4.10
2017-10-25T12:31:46.161Z,4.00
2017-10-25T12:34:13.444Z,3.30
2017-10-25T12:36:40.784Z,3.50
2017-10-25T12:39:08.070Z,3.87
2017-10-25T12:41:35.386Z,3.90
2017-10-25T12:44:02.993Z,3.97
2017-10-25T12:46:30.306Z,4.00
2017-10-25T12:48:57.918Z,3.83
2017-10-25T12:51:26.160Z,4.00
2017-10-25T12:53:53.476Z,3.90
2017-10-25T12:56:20.798Z,3.53
2017-10-25T12:58:48.121Z,3.77
2017-10-25T13:01:15.457Z,4.23
2017-10-25T13:03:42.761Z,3.50
2017-10-25T13:06:10.051Z,4.20
2017-10-25T13:08:37.366Z,4.07
2017-10-25T13:11:04.941Z,3.90
2017-10-25T13:13:32.520Z,4.00
2017-10-25T13:16:00.076Z,4.20
2017-10-25T13:18:28.873Z,3.87
2017-10-25T13:20:56.184Z,4.10
2017-10-25T13:23:23.504Z,4.07
2017-10-25T13:25:50.829Z,4.43
2017-10-25T13:28:18.159Z,4.40
2017-10-25T13:30:45.452Z,4.37
2017-10-25T13:33:12.765Z,4.30
2017-10-25T13:35:40.192Z,4.17
2017-10-25T13:38:07.624Z,4.67
2017-10-25T13:40:34.937Z,5.13
2017-10-25T13:43:02.466Z,4.90
2017-10-25T13:45:29.821Z,4.90
2017-10-25T13:47:57.163Z,4.83
2017-10-25T13:50:24.493Z,5.20
2017-10-25T13:52:51.896Z,5.40
2017-10-25T13:55:19.197Z,5.67
2017-10-25T13:57:46.558Z,5.70
2017-10-25T14:00:13.854Z,6.40
2017-10-25T14:02:41.472Z,5.70
2017-10-25T14:05:08.808Z,6.00
2017-10-25T14:07:36.105Z,5.87
2017-10-25T14:10:03.415Z,5.67
2017-10-25T14:12:30.745Z,6.10
2017-10-25T14:14:58.085Z,5.60
2017-10-25T14:17:25.380Z,6.70
2017-10-25T14:19:52.703Z,6.13
2017-10-25T14:22:19.997Z,6.60
2017-10-25T14:24:47.317Z,6.70
2017-10-25T14:27:20.529Z,7.33
2017-10-25T14:29:47.892Z,6.63
2017-10-25T14:32:15.177Z,6.73
2017-10-25T14:34:42.492Z,6.90
2017-10-25T14:37:09.821Z,7.10
2017-10-25T14:39:37.162Z,7.00
2017-10-25T14:42:04.477Z,7.57
2017-10-25T14:44:32.069Z,7.03
2017-10-25T14:46:59.381Z,7.37
2017-10-25T14:49:26.720Z,8.20
2017-10-25T14:51:54.028Z,7.27
2017-10-25T14:54:21.320Z,7.80
2017-10-25T14:56:48.638Z,7.90
2017-10-25T14:59:15.925Z,7.90
2017-10-25T15:01:43.269Z,9.03
2017-10-25T15:04:10.590Z,8.60
2017-10-25T15:06:37.941Z,8.70
2017-10-25T15:09:05.237Z,8.97
2017-10-25T15:11:32.549Z,8.60
2017-10-25T15:13:59.857Z,8.43
2017-10-25T15:16:27.169Z,8.40
2017-10-25T15:18:54.485Z,8.90
2017-10-25T15:21:21.792Z,8.00
2017-10-25T15:23:49.104Z,7.70
2017-10-25T15:26:16.404Z,8.03
2017-10-25T15:28:43.721Z,6.60
2017-10-25T15:31:11.014Z,7.03
2017-10-25T15:33:38.358Z,7.87
2017-10-25T15:36:05.814Z,7.10
2017-10-25T15:38:33.128Z,7.67
2017-10-25T15:41:00.420Z,7.10
2017-10-25T15:43:27.813Z,7.87
2017-10-25T15:45:55.103Z,8.07
2017-10-25T15:48:22.404Z,7.37
2017-10-25T15:50:49.737Z,8.07
2017-10-25T15:53:17.040Z,8.30
2017-10-25T15:55:44.357Z,7.97
2017-10-25T15:58:11.652Z,8.57
2017-10-25T16:00:39.124Z,8.53
2017-10-25T16:03:06.421Z,9.17
2017-10-25T16:05:33.758Z,8.80
2017-10-25T16:08:01.064Z,8.73
2017-10-25T16:10:28.403Z,9.53
2017-10-25T16:12:55.692Z,9.40
2017-10-25T16:15:23.044Z,9.90
2017-10-25T16:17:50.406Z,10.67
2017-10-25T16:20:17.707Z,10.13
2017-10-25T16:22:45.305Z,10.73
2017-10-25T16:25:12.609Z,10.10
2017-10-25T16:27:39.933Z,10.03
2017-10-25T16:30:07.254Z,10.30
2017-10-25T16:32:34.572Z,9.43
2017-10-25T16:35:01.871Z,9.90
2017-10-25T16:37:29.177Z,9.10
2017-10-25T16:39:56.781Z,10.10
2017-10-25T16:42:24.097Z,9.83
2017-10-25T16:44:51.388Z,9.60
2017-10-25T16:47:18.729Z,9.23
2017-10-25T16:49:46.030Z,9.13
2017-10-25T16:52:13.360Z,7.97
2017-10-25T16:54:40.669Z,8.40
2017-10-25T16:57:07.983Z,8.23
2017-10-25T16:59:35.305Z,7.90
2017-10-25T17:02:02.661Z,7.60
2017-10-25T17:04:29.996Z,7.47
2017-10-25T17:06:57.304Z,8.13
2017-10-25T17:09:24.660Z,8.70
2017-10-25T17:11:51.947Z,7.17
2017-10-25T17:14:19.280Z,7.53
2017-10-25T17:16:46.582Z,7.43
2017-10-25T17:19:13.919Z,7.43
2017-10-25T17:21:41.208Z,8.20
2017-10-25T17:24:08.580Z,8.80
2017-10-25T17:26:35.912Z,8.47
2017-10-25T17:29:03.210Z,8.90
2017-10-25T17:31:30.556Z,8.17
2017-10-25T17:33:57.843Z,8.03
2017-10-25T17:36:25.184Z,7.80
2017-10-25T17:38:52.489Z,8.00
2017-10-25T17:41:19.844Z,7.60
2017-10-25T17:43:47.127Z,8.17
2017-10-25T17:46:14.473Z,7.50
2017-10-25T17:48:41.764Z,8.50
2017-10-25T17:51:09.101Z,7.80
2017-10-25T17:53:36.398Z,7.80
2017-10-25T17:56:03.746Z,7.43
2017-10-25T17:58:31.049Z,7.57
2017-10-25T18:00:58.397Z,7.63
2017-10-25T18:03:25.730Z,7.10
2017-10-25T18:05:53.024Z,7.00
2017-10-25T18:08:20.356Z,7.37
2017-10-25T18:10:48.592Z,7.90
2017-10-25T18:13:15.901Z,8.37
2017-10-25T18:15:43.197Z,6.87
2017-10-25T18:18:10.509Z,7.20
2017-10-25T18:20:37.961Z,7.23
2017-10-25T18:23:05.270Z,7.63
2017-10-25T18:25:32.589Z,7.30
2017-10-25T18:27:59.900Z,7.90
2017-10-25T18:30:27.210Z,8.20
2017-10-25T18:32:54.538Z,8.40
2017-10-25T18:35:22.167Z,8.30
2017-10-25T18:37:49.481Z,8.83
2017-10-25T18:40:16.786Z,8.23
2017-10-25T18:42:44.106Z,8.30
2017-10-25T18:45:11.420Z,8.60
2017-10-25T18:47:38.748Z,9.10
2017-10-25T18:50:06.056Z,9.07
2017-10-25T18:52:33.393Z,8.80
2017-10-25T18:55:00.693Z,9.60
2017-10-25T18:57:27.998Z,9.30
2017-10-25T18:59:55.661Z,9.97
2017-10-25T19:02:22.963Z,9.87
2017-10-25T19:04:50.296Z,9.87
2017-10-25T19:07:17.644Z,11.10
2017-10-25T19:09:44.961Z,10.33
2017-10-25T19:12:12.285Z,10.93
2017-10-25T19:14:39.616Z,10.40
2017-10-25T19:17:06.928Z,10.97
2017-10-25T19:19:34.257Z,10.43
2017-10-25T19:22:01.569Z,10.63
2017-10-25T19:24:28.941Z,10.10
2017-10-25T19:26:56.244Z,10.67
2017-10-25T19:29:23.588Z,11.10
2017-10-25T19:31:50.949Z,11.70
2017-10-25T19:34:18.260Z,10.90
2017-10-25T19:36:45.591Z,10.10
2017-10-25T19:39:12.913Z,10.60
2017-10-25T19:41:40.248Z,10.80
2017-10-25T19:44:07.578Z,10.70
2017-10-25T19:46:34.894Z,11.17
2017-10-25T19:49:02.209Z,10.60
2017-10-25T19:51:29.529Z,10.90
2017-10-25T19:53:56.855Z,10.33
2017-10-25T19:56:24.212Z,10.30
2017-10-25T19:58:51.521Z,10.60
2017-10-25T20:01:18.868Z,9.93
2017-10-25T20:03:46.224Z,9.20
2017-10-25T20:06:13.747Z,9.20
2017-10-25T20:08:42.021Z,9.47
2017-10-25T20:11:09.348Z,9.10
2017-10-25T20:13:36.659Z,8.57
2017-10-25T20:16:03.962Z,8.47
2017-10-25T20:18:31.264Z,9.13
2017-10-25T20:20:58.565Z,7.87
2017-10-25T20:23:25.917Z,7.30
2017-10-25T20:25:53.233Z,7.70
2017-10-25T20:28:20.569Z,7.70
2017-10-25T20:30:47.907Z,7.20
2017-10-25T20:33:15.217Z,7.00
2017-10-25T20:35:42.536Z,7.60
2017-10-25T20:38:09.849Z,7.63
2017-10-25T20:40:37.172Z,6.80
2017-10-25T20:43:04.468Z,6.93
2017-10-25T20:45:31.780Z,7.10
2017-10-25T20:47:59.094Z,6.97
2017-10-25T20:50:26.468Z,7.33
2017-10-25T20:52:54.664Z,7.50
2017-10-25T20:55:21.997Z,7.93
2017-10-25T20:57:49.292Z,8.50
2017-10-25T21:00:16.784Z,7.40
2017-10-25T21:02:44.146Z,6.83
2017-10-25T21:05:11.474Z,7.27
2017-10-25T21:07:38.773Z,6.40
2017-10-25T21:10:06.088Z,6.77
2017-10-25T21:12:33.604Z,6.23
2017-10-25T21:15:00.933Z,6.60
2017-10-25T21:17:28.232Z,6.43
2017-10-25T21:19:55.583Z,6.10
2017-10-25T21:22:22.870Z,5.30
2017-10-25T21:24:50.160Z,6.17
2017-10-25T21:27:17.464Z,6.20
2017-10-25T21:29:44.761Z,5.27
2017-10-25T21:32:12.069Z,5.50
2017-10-25T21:34:39.404Z,5.80
2017-10-25T21:37:06.711Z,5.20
2017-10-25T21:39:34.048Z,5.63
2017-10-25T21:42:01.375Z,5.23
2017-10-25T21:44:28.673Z,5.70
2017-10-25T21:46:55.988Z,5.30
2017-10-25T21:49:23.281Z,4.90
2017-10-25T21:51:50.596Z,5.53
2017-10-25T21:54:17.890Z,5.30
2017-10-25T21:56:45.257Z,6.40
2017-10-25T21:59:12.887Z,5.50
2017-10-25T22:01:41.113Z,6.20
2017-10-25T22:04:08.429Z,5.80
2017-10-25T22:06:35.721Z,6.10
2017-10-25T22:09:03.048Z,7.00
2017-10-25T22:11:30.371Z,6.57
2017-10-25T22:13:57.686Z,7.47
2017-10-25T22:16:24.993Z,7.53
2017-10-25T22:18:52.322Z,7.90
2017-10-25T22:21:20.443Z,7.70
2017-10-25T22:23:47.760Z,7.17
2017-10-25T22:26:15.084Z,7.33
2017-10-25T22:28:42.404Z,7.10
2017-10-25T22:31:09.735Z,7.07
2017-10-25T22:33:37.040Z,6.40
2017-10-25T22:36:04.373Z,7.20
2017-10-25T22:38:31.704Z,6.77
2017-10-25T22:40:59.002Z,5.80
2017-10-25T22:43:27.252Z,5.97
2017-10-25T22:45:54.548Z,6.27
2017-10-25T22:48:21.850Z,6.37
2017-10-25T22:50:49.166Z,6.03
2017-10-25T22:53:16.462Z,6.10
2017-10-25T22:55:43.768Z,5.93
2017-10-25T22:58:11.393Z,5.50
2017-10-25T23:00:38.706Z,5.20
2017-10-25T23:03:06.048Z,5.00
2017-10-25T23:05:33.353Z,5.70
2017-10-25T23:08:00.972Z,5.20
2017-10-25T23:10:28.301Z,5.60
2017-10-25T23:12:55.619Z,5.90
2017-10-25T23:15:22.937Z,5.27
2017-10-25T23:17:50.254Z,5.67
2017-10-25T23:20:17.593Z,5.20
2017-10-25T23:22:44.916Z,5.50
2017-10-25T23:25:12.197Z,5.30
2017-10-25T23:27:39.541Z,5.17
2017-10-25T23:30:06.842Z,4.93
2017-10-25T23:32:34.181Z,5.93
2017-10-25T23:35:01.503Z,5.00
2017-10-25T23:37:28.806Z,5.33
2017-10-25T23:39:56.110Z,5.60
2017-10-25T23:42:23.437Z,5.80
2017-10-25T23:44:50.733Z,5.70
2017-10-25T23:47:18.053Z,5.80
2017-10-25T23:49:45.347Z,6.20
2017-10-25T23:52:12.661Z,6.67
2017-10-25T23:54:39.975Z,5.50
2017-10-25T23:57:07.287Z,6.10
2017-10-25T23:59:34.602Z,7.00
